Time;durP1;ratioP1;P1;durP2;ratioP2;P2;SDS_P1;SDS_P2;PMS_P1;PMS_P2;Temp;Humidity;BMP_temperature;BMP_pressure;BME280_temperature;BME280_humidity;BME280_pressure;Samples;Min_cycle;Max_cycle;Signal;HPM_P1;HPM_P2
2022/06/20 00:01:04;;;;;;;2.83;0.90;;;13.00;99.90;;;;;;4860783;29;20096;-67
2022/06/20 00:03:35;;;;;;;1.75;0.75;;;12.90;99.90;;;;;;4886496;29;20327;-67
2022/06/20 00:06:02;;;;;;;1.17;0.68;;;12.90;99.90;;;;;;4872940;29;20086;-67
2022/06/20 00:08:28;;;;;;;1.08;0.57;;;12.90;99.90;;;;;;4876451;29;20523;-67
2022/06/20 00:10:55;;;;;;;1.17;0.60;;;12.90;99.90;;;;;;4908645;29;20052;-68
2022/06/20 00:13:29;;;;;;;1.20;0.60;;;12.80;99.90;;;;;;4892031;29;20120;-67
2022/06/20 00:16:05;;;;;;;3.07;0.90;;;12.80;99.90;;;;;;4890798;29;20048;-67
2022/06/20 00:18:32;;;;;;;1.25;0.60;;;12.80;99.90;;;;;;4891157;29;20063;-67
2022/06/20 00:20:58;;;;;;;2.42;0.70;;;12.80;99.90;;;;;;4908564;29;20060;-67
2022/06/20 00:23:25;;;;;;;2.13;0.85;;;12.70;99.90;;;;;;4891229;29;20143;-67
2022/06/20 00:25:52;;;;;;;1.27;0.80;;;12.70;99.90;;;;;;4907749;29;20619;-67
2022/06/20 00:28:19;;;;;;;1.85;1.08;;;12.70;99.90;;;;;;4875705;29;20123;-67
2022/06/20 00:30:47;;;;;;;3.17;0.85;;;12.70;99.90;;;;;;4899719;29;20083;-67
2022/06/20 00:33:14;;;;;;;1.75;0.98;;;12.70;99.90;;;;;;4849853;29;20426;-67
2022/06/20 00:35:41;;;;;;;1.02;0.70;;;12.70;99.90;;;;;;4851539;29;20605;-67
2022/06/20 00:38:13;;;;;;;1.60;0.70;;;12.70;99.90;;;;;;4869404;29;20084;-67
2022/06/20 00:40:45;;;;;;;0.85;0.60;;;12.60;99.90;;;;;;4868917;29;20139;-67
2022/06/20 00:43:24;;;;;;;0.60;0.40;;;12.60;99.90;;;;;;4882674;29;20132;-68
2022/06/20 00:45:52;;;;;;;1.13;0.52;;;12.60;99.90;;;;;;4885527;29;20061;-68
2022/06/20 00:48:28;;;;;;;1.25;0.55;;;12.50;99.90;;;;;;4846474;29;20490;-67
2022/06/20 00:50:57;;;;;;;0.93;0.70;;;12.50;99.90;;;;;;4850410;29;20076;-67
2022/06/20 00:53:30;;;;;;;1.48;0.65;;;12.50;99.90;;;;;;4834690;29;20132;-67
2022/06/20 00:56:03;;;;;;;;;;;12.50;99.90;;;;;;4863151;29;20076;-67
2022/06/20 00:58:46;;;;;;;1.30;0.75;;;12.40;99.90;;;;;;4867297;29;20018;-67
2022/06/20 01:01:14;;;;;;;0.93;0.43;;;12.40;99.90;;;;;;4882138;29;20049;-67
2022/06/20 01:03:47;;;;;;;1.30;0.60;;;12.40;99.90;;;;;;4887913;29;20591;-67
2022/06/20 01:06:21;;;;;;;0.90;0.60;;;12.30;99.90;;;;;;4852878;29;20478;-67
2022/06/20 01:08:51;;;;;;;0.90;0.70;;;12.30;99.90;;;;;;4868937;29;20155;-67
2022/06/20 01:11:22;;;;;;;1.40;0.60;;;12.30;99.90;;;;;;4869928;29;20135;-67
2022/06/20 01:13:50;;;;;;;0.98;0.50;;;12.20;99.90;;;;;;4869800;29;20045;-67
2022/06/20 01:16:24;;;;;;;0.77;0.60;;;12.20;99.90;;;;;;4869513;29;20071;-67
2022/06/20 01:18:51;;;;;;;0.80;0.43;;;12.20;99.90;;;;;;4868009;29;20049;-67
2022/06/20 01:21:19;;;;;;;1.38;0.70;;;12.20;99.90;;;;;;4837526;29;20085;-67
2022/06/20 01:23:49;;;;;;;1.50;0.50;;;12.20;99.90;;;;;;4853187;29;20888;-67
2022/06/20 01:26:32;;;;;;;0.98;0.60;;;12.20;99.90;;;;;;4854314;29;20475;-68
2022/06/20 01:29:03;;;;;;;;;;;12.10;99.90;;;;;;4862100;29;20080;-67
2022/06/20 01:31:33;;;;;;;0.98;0.50;;;12.20;99.90;;;;;;4873422;29;19985;-67
2022/06/20 01:34:00;;;;;;;0.98;0.40;;;12.10;99.90;;;;;;4871200;29;20131;-67
2022/06/20 01:39:14;;;;;;;0.73;0.45;;;12.10;99.90;;;;;;4888737;29;20084;-67
2022/06/20 01:44:26;;;;;;;1.05;0.68;;;12.20;99.90;;;;;;4889494;29;20159;-68
2022/06/20 01:46:52;;;;;;;1.50;0.85;;;12.10;99.90;;;;;;4888451;29;20049;-67
2022/06/20 01:49:21;;;;;;;0.40;0.40;;;12.10;99.90;;;;;;4887895;29;20472;-68
2022/06/20 01:51:53;;;;;;;1.52;0.60;;;12.20;99.90;;;;;;4873419;29;20143;-67
2022/06/20 01:54:20;;;;;;;0.95;0.70;;;12.20;99.90;;;;;;4888205;29;20120;-67
2022/06/20 01:56:47;;;;;;;0.95;0.57;;;12.20;99.90;;;;;;4890596;29;20116;-67
2022/06/20 01:59:17;;;;;;;1.15;0.50;;;12.20;99.90;;;;;;4887508;29;20131;-67
2022/06/20 02:01:43;;;;;;;0.70;0.55;;;12.20;99.90;;;;;;4887945;29;20080;-67
2022/06/20 02:04:14;;;;;;;0.75;0.57;;;12.30;99.90;;;;;;4884535;29;20057;-67
2022/06/20 02:06:40;;;;;;;0.70;0.50;;;12.40;99.90;;;;;;4890397;29;20139;-67
2022/06/20 02:09:07;;;;;;;1.92;0.52;;;12.50;99.90;;;;;;4887843;29;20572;-67
2022/06/20 02:11:35;;;;;;;0.65;0.47;;;12.50;99.90;;;;;;4857865;29;20156;-67
2022/06/20 02:14:07;;;;;;;0.80;0.50;;;12.50;99.90;;;;;;4872595;29;20112;-68
2022/06/20 02:16:35;;;;;;;0.88;0.30;;;12.60;99.90;;;;;;4888350;29;20127;-67
2022/06/20 02:19:04;;;;;;;0.68;0.45;;;12.60;99.90;;;;;;4886438;29;20048;-67
2022/06/20 02:21:32;;;;;;;1.50;0.55;;;12.60;99.90;;;;;;4872722;29;20148;-67
2022/06/20 02:24:10;;;;;;;0.60;0.55;;;12.60;99.90;;;;;;4887505;29;20132;-67
2022/06/20 02:26:38;;;;;;;1.10;0.50;;;12.70;99.90;;;;;;4872609;29;20053;-67
2022/06/20 02:29:09;;;;;;;2.30;0.85;;;12.70;99.90;;;;;;4887480;29;20076;-67
2022/06/20 02:31:36;;;;;;;0.73;0.50;;;12.60;99.90;;;;;;4887246;29;20154;-67
2022/06/20 02:34:03;;;;;;;1.60;0.60;;;12.60;99.90;;;;;;4870936;29;20049;-67
2022/06/20 02:36:31;;;;;;;2.08;0.80;;;12.70;99.90;;;;;;4888530;29;20183;-67
2022/06/20 02:38:57;;;;;;;1.05;0.65;;;12.70;99.90;;;;;;4872089;29;20052;-67
2022/06/20 02:41:24;;;;;;;1.15;0.65;;;12.70;99.90;;;;;;4888425;29;20127;-68
2022/06/20 02:44:04;;;;;;;2.33;1.08;;;12.80;99.90;;;;;;4871758;29;20056;-67
2022/06/20 02:46:31;;;;;;;1.52;0.52;;;12.70;99.90;;;;;;4874653;29;20139;-68
2022/06/20 02:48:59;;;;;;;1.50;0.80;;;12.80;99.90;;;;;;4869945;29;20061;-67
2022/06/20 02:51:32;;;;;;;1.02;0.57;;;12.80;99.90;;;;;;4872440;29;20135;-68
2022/06/20 02:54:00;;;;;;;0.82;0.50;;;12.80;99.90;;;;;;4872395;29;20288;-68
2022/06/20 02:56:28;;;;;;;1.73;0.80;;;12.80;99.90;;;;;;4889425;29;20082;-68
2022/06/20 02:58:58;;;;;;;2.35;1.33;;;12.70;99.90;;;;;;4872061;29;20084;-67
2022/06/20 03:01:37;;;;;;;1.80;0.57;;;12.70;99.90;;;;;;4869233;29;20136;-67
2022/06/20 03:04:04;;;;;;;1.65;0.68;;;12.70;99.90;;;;;;4867717;29;20056;-68
2022/06/20 03:06:39;;;;;;;2.17;0.80;;;12.70;99.90;;;;;;4887941;29;20052;-68
2022/06/20 03:09:06;;;;;;;1.67;0.93;;;12.60;99.90;;;;;;4887263;29;20576;-67
2022/06/20 03:11:35;;;;;;;3.85;1.00;;;12.60;99.90;;;;;;4872437;29;20131;-68
2022/06/20 03:14:03;;;;;;;1.67;0.60;;;12.50;99.90;;;;;;4871425;29;20076;-67
2022/06/20 03:16:31;;;;;;;2.38;0.90;;;12.50;99.90;;;;;;4887571;29;20523;-68
2022/06/20 03:18:58;;;;;;;0.80;0.50;;;12.40;99.90;;;;;;4885497;29;20059;-68
2022/06/20 03:21:27;;;;;;;1.13;0.70;;;12.40;99.90;;;;;;4872680;29;20052;-68
2022/06/20 03:23:54;;;;;;;1.48;0.60;;;12.30;99.90;;;;;;4872511;29;20536;-68
2022/06/20 03:26:23;;;;;;;1.83;0.70;;;12.30;99.90;;;;;;4889143;29;20163;-67
2022/06/20 03:28:50;;;;;;;0.70;0.60;;;12.20;99.90;;;;;;4887190;29;20140;-67
2022/06/20 03:31:17;;;;;;;0.98;0.50;;;12.20;99.90;;;;;;4856630;29;20103;-68
2022/06/20 03:33:44;;;;;;;1.38;0.45;;;12.10;99.90;;;;;;4884853;29;20048;-68
2022/06/20 03:36:13;;;;;;;1.02;0.60;;;12.10;99.90;;;;;;4886535;29;20127;-67
2022/06/20 03:38:40;;;;;;;1.13;0.60;;;12.00;99.90;;;;;;4887178;29;20643;-67
2022/06/20 03:41:07;;;;;;;1.33;0.60;;;12.00;99.90;;;;;;4871601;29;20544;-68
2022/06/20 03:43:34;;;;;;;0.80;0.80;;;12.00;99.90;;;;;;4890683;29;20164;-68
2022/06/20 03:46:16;;;;;;;1.73;0.82;;;11.90;99.90;;;;;;4874583;29;20537;-67
2022/06/20 03:48:54;;;;;;;1.67;0.70;;;11.90;99.90;;;;;;4874250;29;20120;-68
2022/06/20 03:51:22;;;;;;;1.75;0.80;;;11.90;99.90;;;;;;4861319;29;20135;-68
2022/06/20 03:54:03;;;;;;;0.73;0.40;;;11.90;99.90;;;;;;4890751;29;20735;-67
2022/06/20 03:56:54;;;;;;;0.77;0.65;;;11.90;99.90;;;;;;4891250;29;20060;-67
2022/06/20 03:59:28;;;;;;;3.03;0.80;;;11.90;99.90;;;;;;4869595;29;20067;-67
2022/06/20 04:02:02;;;;;;;1.45;0.70;;;11.80;99.90;;;;;;4875862;29;20072;-67
2022/06/20 04:04:36;;;;;;;0.93;0.60;;;11.80;99.90;;;;;;4889049;29;20096;-68
2022/06/20 04:07:06;;;;;;;1.25;0.77;;;11.80;99.90;;;;;;4891232;29;20411;-68
2022/06/20 04:12:43;;;;;;;1.27;0.57;;;11.80;99.90;;;;;;4870010;29;20099;-68
2022/06/20 04:15:20;;;;;;;1.05;0.80;;;11.80;99.90;;;;;;4890084;29;20136;-67
2022/06/20 04:21:10;;;;;;;0.68;0.60;;;11.80;99.90;;;;;;4888270;29;20144;-67
2022/06/20 04:23:42;;;;;;;1.55;0.60;;;11.90;99.90;;;;;;4889688;29;20151;-67
2022/06/20 04:26:28;;;;;;;1.38;0.50;;;11.90;99.90;;;;;;4874835;29;20088;-68
2022/06/20 04:28:58;;;;;;;0.60;0.43;;;11.90;99.90;;;;;;4879937;29;20057;-67
2022/06/20 04:31:46;;;;;;;0.60;0.55;;;11.90;99.90;;;;;;4889091;29;20074;-67
2022/06/20 04:34:27;;;;;;;0.52;0.40;;;11.90;99.90;;;;;;4889938;29;20056;-67
2022/06/20 04:37:17;;;;;;;0.32;0.32;;;11.90;99.90;;;;;;4876050;29;20053;-67
2022/06/20 04:40:06;;;;;;;0.30;0.30;;;11.90;99.90;;;;;;4872992;29;20052;-67
2022/06/20 04:42:44;;;;;;;1.05;0.47;;;12.00;99.90;;;;;;4834832;29;20139;-67
2022/06/20 04:45:14;;;;;;;1.90;0.40;;;12.00;99.90;;;;;;4889118;29;20155;-67
2022/06/20 04:47:53;;;;;;;0.47;0.20;;;12.00;99.90;;;;;;4888448;29;20144;-67
2022/06/20 04:50:24;;;;;;;0.57;0.40;;;12.00;99.90;;;;;;4875132;29;20095;-68
2022/06/20 04:52:52;;;;;;;1.08;0.45;;;12.00;99.90;;;;;;4873324;29;20045;-67
2022/06/20 04:55:21;;;;;;;1.13;0.60;;;12.10;99.90;;;;;;4889512;29;20095;-67
2022/06/20 04:57:50;;;;;;;0.75;0.40;;;12.10;99.90;;;;;;4890281;29;20049;-68
2022/06/20 05:00:25;;;;;;;0.57;0.40;;;12.10;99.90;;;;;;4872992;29;20052;-67
2022/06/20 05:02:52;;;;;;;1.02;0.60;;;12.10;99.90;;;;;;4885547;29;20439;-68
2022/06/20 05:05:26;;;;;;;2.55;0.70;;;12.20;99.90;;;;;;4879358;29;20060;-68
2022/06/20 05:07:53;;;;;;;1.02;0.55;;;12.20;99.90;;;;;;4877763;29;20417;-68
2022/06/20 05:10:30;;;;;;;0.98;0.70;;;12.30;99.90;;;;;;4889276;29;20084;-68
2022/06/20 05:13:08;;;;;;;2.05;1.00;;;12.30;99.90;;;;;;4864089;29;20139;-68
2022/06/20 05:15:48;;;;;;;1.10;0.70;;;12.40;99.90;;;;;;4879694;29;20124;-69
2022/06/20 05:18:32;;;;;;;1.40;0.65;;;12.40;99.90;;;;;;4885020;29;20138;-68
2022/06/20 05:21:02;;;;;;;2.20;0.77;;;12.40;99.90;;;;;;4868797;29;20534;-68
2022/06/20 05:23:37;;;;;;;1.67;0.70;;;12.40;99.90;;;;;;4888372;29;20136;-68
2022/06/20 05:26:05;;;;;;;1.08;0.70;;;12.50;99.90;;;;;;4882884;29;20168;-68
2022/06/20 05:28:32;;;;;;;1.05;0.90;;;12.50;99.90;;;;;;4880921;29;20112;-68
2022/06/20 05:31:00;;;;;;;1.23;0.70;;;12.60;99.90;;;;;;4889784;29;20052;-68
2022/06/20 05:33:45;;;;;;;1.38;0.73;;;12.60;99.90;;;;;;4876445;29;20520;-68
2022/06/20 05:36:15;;;;;;;1.75;0.90;;;12.60;99.90;;;;;;4905636;29;20387;-69
2022/06/20 05:39:01;;;;;;;1.88;1.00;;;12.70;99.90;;;;;;4889429;29;20085;-67
2022/06/20 05:41:28;;;;;;;1.42;0.75;;;12.70;99.90;;;;;;4891093;29;20142;-68
2022/06/20 05:43:56;;;;;;;1.00;0.60;;;12.70;99.90;;;;;;4887224;29;20100;-67
2022/06/20 05:46:22;;;;;;;1.35;0.70;;;12.80;99.90;;;;;;4887881;29;20067;-67
2022/06/20 05:48:59;;;;;;;2.38;0.93;;;12.80;99.90;;;;;;4887689;29;20052;-67
2022/06/20 05:51:26;;;;;;;2.55;1.00;;;12.90;99.90;;;;;;4888122;29;20147;-68
2022/06/20 05:53:56;;;;;;;2.30;0.95;;;12.90;99.90;;;;;;4868592;29;20055;-68
2022/06/20 05:56:39;;;;;;;2.50;1.23;;;12.90;99.90;;;;;;4863001;29;20487;-68
2022/06/20 05:59:06;;;;;;;2.38;1.23;;;12.90;99.90;;;;;;4872465;29;20095;-68
2022/06/20 06:01:35;;;;;;;2.35;1.17;;;12.90;99.90;;;;;;4889458;29;20479;-69
2022/06/20 06:04:21;;;;;;;4.63;1.10;;;12.90;99.90;;;;;;4888184;29;20056;-69
2022/06/20 06:06:50;;;;;;;3.40;1.60;;;12.90;99.90;;;;;;4905794;29;20056;-68
2022/06/20 06:09:49;;;;;;;2.97;1.20;;;12.90;99.90;;;;;;4905258;29;20444;-68
2022/06/20 06:12:26;;;;;;;2.10;1.02;;;12.90;99.90;;;;;;4869879;29;20105;-68
2022/06/20 06:14:56;;;;;;;2.00;1.10;;;13.00;99.90;;;;;;4884879;29;20056;-69
2022/06/20 06:17:37;;;;;;;3.65;1.30;;;13.00;99.90;;;;;;4885069;29;20055;-69
2022/06/20 06:20:23;;;;;;;2.67;1.30;;;13.10;99.90;;;;;;4874795;29;20056;-69
2022/06/20 06:22:52;;;;;;;2.00;0.98;;;13.10;99.90;;;;;;4878551;29;20446;-69
2022/06/20 06:25:38;;;;;;;1.50;0.98;;;13.20;99.90;;;;;;4872352;29;20059;-69
2022/06/20 06:28:07;;;;;;;1.55;0.90;;;13.30;99.90;;;;;;4885430;29;20139;-69
2022/06/20 06:30:42;;;;;;;2.33;1.40;;;13.40;99.90;;;;;;4892313;29;20079;-69
2022/06/20 06:33:20;;;;;;;2.28;1.20;;;13.40;99.90;;;;;;4885593;29;20158;-68
2022/06/20 06:36:15;;;;;;;2.80;1.40;;;13.50;99.90;;;;;;4888769;29;20052;-68
2022/06/20 06:38:45;;;;;;;2.17;1.02;;;13.50;99.90;;;;;;4877850;29;20143;-68
2022/06/20 06:41:14;;;;;;;1.27;0.82;;;13.60;99.90;;;;;;4888492;29;20230;-68
2022/06/20 06:43:44;;;;;;;1.70;0.95;;;13.60;99.90;;;;;;4854548;29;20525;-68
2022/06/20 06:46:22;;;;;;;1.73;0.88;;;13.60;99.90;;;;;;4882523;29;20139;-68
2022/06/20 06:49:22;;;;;;;2.92;1.20;;;13.60;99.90;;;;;;4871821;29;20051;-68
2022/06/20 06:51:50;;;;;;;1.55;1.13;;;13.70;99.90;;;;;;4889522;29;20052;-68
2022/06/20 06:54:32;;;;;;;1.58;0.90;;;13.70;99.90;;;;;;4905757;29;20128;-68
2022/06/20 06:57:17;;;;;;;1.88;0.90;;;13.80;99.90;;;;;;4889031;29;20148;-68
2022/06/20 07:00:02;;;;;;;2.97;1.10;;;13.90;99.90;;;;;;4889668;29;20060;-68
2022/06/20 07:02:32;;;;;;;3.05;1.23;;;13.90;99.90;;;;;;4904355;29;20051;-68
2022/06/20 07:05:17;;;;;;;3.53;1.35;;;14.00;99.90;;;;;;4872844;29;20299;-69
2022/06/20 07:08:17;;;;;;;1.42;0.80;;;14.00;99.90;;;;;;4873455;29;20048;-69
2022/06/20 07:10:52;;;;;;;1.23;0.90;;;14.10;99.90;;;;;;4883247;29;20683;-68
2022/06/20 07:13:36;;;;;;;1.88;1.10;;;14.20;99.90;;;;;;4905135;29;20135;-68
2022/06/20 07:16:03;;;;;;;1.65;0.80;;;14.20;99.90;;;;;;4885519;29;20094;-68
2022/06/20 07:18:43;;;;;;;2.55;1.17;;;14.30;99.90;;;;;;4851505;29;20086;-68
2022/06/20 07:21:11;;;;;;;2.80;1.40;;;14.30;99.90;;;;;;4895212;29;20479;-68
2022/06/20 07:23:38;;;;;;;1.33;1.10;;;14.30;99.90;;;;;;4888957;29;20533;-68
2022/06/20 07:26:05;;;;;;;2.00;1.30;;;14.30;99.90;;;;;;4888416;29;20094;-68
2022/06/20 07:28:45;;;;;;;1.52;0.82;;;14.40;99.90;;;;;;4893664;29;20051;-68
2022/06/20 07:31:21;;;;;;;1.63;0.93;;;14.50;99.90;;;;;;4882760;29;20092;-69
2022/06/20 07:34:00;;;;;;;3.30;1.25;;;14.50;99.90;;;;;;4881199;29;20635;-68
2022/06/20 07:36:31;;;;;;;1.75;0.90;;;14.60;99.90;;;;;;4877107;29;20060;-68
2022/06/20 07:39:04;;;;;;;2.20;1.10;;;14.60;99.90;;;;;;4873491;29;20087;-68
2022/06/20 07:41:43;;;;;;;1.85;0.90;;;14.60;99.90;;;;;;4882690;29;20056;-69
2022/06/20 07:44:29;;;;;;;2.25;1.20;;;14.60;99.90;;;;;;4881734;29;20094;-68
2022/06/20 07:47:08;;;;;;;0.85;0.60;;;14.80;99.90;;;;;;4894354;29;20108;-68
2022/06/20 07:49:37;;;;;;;1.58;0.80;;;14.90;99.90;;;;;;4880757;29;20131;-68
2022/06/20 07:52:08;;;;;;;1.48;0.70;;;15.00;99.90;;;;;;4882460;29;20044;-68
2022/06/20 07:54:39;;;;;;;0.80;0.60;;;15.00;99.90;;;;;;4866894;29;20155;-68
2022/06/20 07:57:10;;;;;;;2.63;1.10;;;15.00;99.90;;;;;;4895637;29;20162;-68
2022/06/20 07:59:41;;;;;;;2.50;1.20;;;15.00;99.90;;;;;;4881578;29;20095;-68
2022/06/20 08:02:17;;;;;;;1.55;0.90;;;15.00;99.90;;;;;;4864541;29;20076;-68
2022/06/20 08:04:44;;;;;;;1.23;0.77;;;15.10;99.90;;;;;;4911930;29;20055;-68
2022/06/20 08:07:20;;;;;;;1.20;0.63;;;15.10;99.90;;;;;;4896245;29;20052;-68
2022/06/20 08:09:52;;;;;;;1.58;0.77;;;15.20;99.90;;;;;;4867501;29;20380;-68
2022/06/20 08:13:09;;;;;;;0.88;0.80;;;15.40;99.90;;;;;;4899606;29;20058;-68
2022/06/20 08:15:43;;;;;;;1.50;0.90;;;15.40;99.90;;;;;;4885445;29;20139;-68
2022/06/20 08:18:12;;;;;;;1.75;0.90;;;15.40;99.90;;;;;;4887112;29;20401;-68
2022/06/20 08:20:49;;;;;;;1.15;0.60;;;15.30;99.90;;;;;;4895447;29;20063;-68
2022/06/20 08:23:28;;;;;;;2.45;0.90;;;15.40;99.90;;;;;;4894779;29;20079;-68
2022/06/20 08:25:57;;;;;;;1.10;0.82;;;15.50;99.90;;;;;;4893560;29;20206;-68
2022/06/20 08:28:51;;;;;;;1.90;0.90;;;15.60;99.90;;;;;;4892795;29;20245;-68
2022/06/20 08:31:20;;;;;;;1.20;0.93;;;15.60;99.90;;;;;;4886709;29;20080;-68
2022/06/20 08:34:28;;;;;;;1.52;0.95;;;15.70;99.90;;;;;;4887574;29;20040;-68
2022/06/20 08:37:20;;;;;;;1.60;0.88;;;15.60;99.90;;;;;;4859880;29;20301;-68
2022/06/20 08:39:50;;;;;;;2.22;1.00;;;15.70;99.90;;;;;;4879643;29;20131;-69
2022/06/20 08:42:16;;;;;;;1.88;1.23;;;15.70;99.90;;;;;;4894492;29;20478;-69
2022/06/20 08:45:07;;;;;;;2.13;1.38;;;15.80;99.90;;;;;;4910881;29;20433;-69
2022/06/20 08:48:14;;;;;;;1.58;1.02;;;15.90;99.90;;;;;;4893074;29;20052;-69
2022/06/20 08:51:18;;;;;;;3.78;1.35;;;16.00;99.90;;;;;;4893787;29;20096;-69
2022/06/20 08:54:04;;;;;;;1.67;1.00;;;16.10;99.90;;;;;;4904606;29;20515;-69
2022/06/20 08:56:54;;;;;;;1.75;1.05;;;16.20;99.90;;;;;;4906808;29;20560;-68
2022/06/20 08:59:38;;;;;;;2.47;1.33;;;16.30;99.90;;;;;;4893265;29;20059;-69
2022/06/20 09:02:17;;;;;;;1.90;1.00;;;16.40;99.90;;;;;;4906462;29;20067;-69
2022/06/20 09:05:15;;;;;;;2.38;0.95;;;16.40;99.90;;;;;;4888694;29;20313;-69
2022/06/20 09:07:51;;;;;;;1.52;1.00;;;16.50;99.90;;;;;;4893699;29;20331;-68
2022/06/20 09:10:30;;;;;;;1.77;1.00;;;16.50;99.90;;;;;;4888414;29;20212;-68
2022/06/20 09:13:03;;;;;;;1.50;0.90;;;16.50;99.90;;;;;;4891836;29;20048;-67
2022/06/20 09:15:39;;;;;;;1.60;1.10;;;16.60;99.90;;;;;;4910793;29;20071;-68
2022/06/20 09:18:23;;;;;;;1.58;1.00;;;16.60;99.90;;;;;;4891210;29;20080;-68
2022/06/20 09:21:04;;;;;;;2.03;0.95;;;16.60;99.90;;;;;;4883972;29;20169;-68
2022/06/20 09:23:57;;;;;;;2.42;1.10;;;16.60;99.90;;;;;;4872549;29;20567;-68
2022/06/20 09:26:36;;;;;;;1.40;0.90;;;16.50;99.90;;;;;;4889227;29;20111;-69
2022/06/20 09:29:06;;;;;;;1.92;1.02;;;16.60;99.90;;;;;;4872276;29;20147;-68
2022/06/20 09:32:06;;;;;;;2.40;0.93;;;16.80;99.90;;;;;;4889371;29;20618;-68
2022/06/20 09:34:57;;;;;;;1.83;0.90;;;17.00;99.90;;;;;;4890593;29;20056;-68
2022/06/20 09:37:49;;;;;;;3.80;1.25;;;17.20;99.90;;;;;;4907523;29;20086;-68
2022/06/20 09:40:34;;;;;;;1.92;1.05;;;17.20;99.90;;;;;;4908468;29;20452;-68
2022/06/20 09:43:15;;;;;;;2.55;1.20;;;17.30;99.90;;;;;;4907639;29;20076;-68
2022/06/20 09:45:46;;;;;;;2.25;1.25;;;17.40;99.90;;;;;;4907457;29;20147;-69
2022/06/20 09:48:28;;;;;;;1.33;0.70;;;17.30;99.90;;;;;;4889400;29;20187;-68
2022/06/20 09:51:30;;;;;;;1.42;0.88;;;17.40;99.90;;;;;;4909471;29;20102;-68
2022/06/20 09:54:15;;;;;;;1.10;0.80;;;17.50;99.90;;;;;;4900197;29;20044;-68
2022/06/20 09:56:50;;;;;;;1.55;0.95;;;17.50;99.90;;;;;;4875860;29;20131;-68
2022/06/20 09:59:41;;;;;;;1.73;0.98;;;17.50;99.90;;;;;;4892477;29;20452;-68
2022/06/20 10:02:26;;;;;;;1.85;0.90;;;17.40;99.90;;;;;;4885404;29;20073;-69
2022/06/20 10:05:04;;;;;;;1.02;0.80;;;17.40;99.90;;;;;;4889526;29;20044;-69
2022/06/20 10:07:58;;;;;;;2.55;1.33;;;17.70;99.90;;;;;;4905354;29;20126;-69
2022/06/20 10:10:33;;;;;;;1.13;0.68;;;18.00;99.90;;;;;;4862211;29;20233;-77
2022/06/20 10:13:12;;;;;;;1.45;0.80;;;18.30;99.90;;;;;;4888716;29;20096;-77
2022/06/20 10:16:11;;;;;;;1.55;0.90;;;18.40;99.90;;;;;;4892973;29;20445;-77
2022/06/20 10:19:01;;;;;;;1.20;0.98;;;18.40;99.90;;;;;;4890849;29;20052;-77
2022/06/20 10:21:38;;;;;;;1.50;1.08;;;18.60;99.90;;;;;;4891946;29;20059;-78
2022/06/20 10:24:11;;;;;;;1.77;1.08;;;18.80;99.90;;;;;;4889388;29;20044;-76
2022/06/20 10:26:38;;;;;;;;;;;18.80;99.90;;;;;;4905660;29;20059;-77
2022/06/20 10:29:17;;;;;;;1.42;1.02;;;18.90;99.90;;;;;;4906975;29;19997;-77
2022/06/20 10:31:52;;;;;;;1.85;1.08;;;18.80;99.90;;;;;;4872015;29;20144;-77
2022/06/20 10:34:42;;;;;;;1.85;1.15;;;18.70;99.90;;;;;;4866200;29;20117;-77
2022/06/20 10:37:21;;;;;;;1.65;0.85;;;18.70;99.90;;;;;;4882754;29;20052;-77
2022/06/20 10:40:17;;;;;;;1.10;0.70;;;18.90;99.90;;;;;;4890930;29;20083;-77
2022/06/20 10:42:55;;;;;;;3.03;1.23;;;19.20;99.90;;;;;;4888206;29;20107;-76
2022/06/20 10:45:43;;;;;;;2.13;1.33;;;19.20;99.90;;;;;;4890064;29;20139;-77
2022/06/20 10:48:38;;;;;;;3.20;1.27;;;19.00;99.30;;;;;;4907526;29;20250;-77
2022/06/20 10:51:26;;;;;;;2.03;1.08;;;18.90;99.70;;;;;;4894050;29;20370;-76
2022/06/20 10:54:11;;;;;;;1.48;0.85;;;18.90;99.90;;;;;;4905014;29;20051;-76
2022/06/20 10:56:47;;;;;;;2.17;1.27;;;19.00;99.90;;;;;;4907568;29;20342;-76
2022/06/20 10:59:25;;;;;;;2.42;1.08;;;18.90;99.10;;;;;;4906775;29;20087;-76
2022/06/20 11:01:59;;;;;;;1.42;0.82;;;19.10;99.90;;;;;;4890257;29;20313;-78
2022/06/20 11:04:35;;;;;;;1.63;1.00;;;19.50;99.90;;;;;;4906592;29;20433;-78
2022/06/20 11:07:05;;;;;;;1.52;0.93;;;19.70;99.40;;;;;;4904638;29;20091;-75
2022/06/20 11:09:37;;;;;;;1.33;0.80;;;20.00;99.40;;;;;;4908246;29;20056;-76
2022/06/20 11:12:33;;;;;;;1.73;1.00;;;20.00;99.10;;;;;;4907740;29;20091;-76
2022/06/20 11:15:11;;;;;;;1.35;0.82;;;20.00;98.30;;;;;;4876453;29;20092;-76
2022/06/20 11:18:00;;;;;;;2.08;0.90;;;19.80;98.40;;;;;;4886364;29;20115;-76
2022/06/20 11:21:05;;;;;;;2.38;1.38;;;19.70;97.00;;;;;;4887625;29;20068;-76
2022/06/20 11:24:01;;;;;;;1.90;1.10;;;19.70;96.70;;;;;;4868817;29;20076;-77
2022/06/20 11:26:28;;;;;;;3.22;1.25;;;19.90;97.10;;;;;;4881775;29;20514;-77
2022/06/20 11:29:25;;;;;;;1.25;0.80;;;20.20;96.80;;;;;;4907096;29;20111;-77
2022/06/20 11:32:06;;;;;;;1.85;1.02;;;20.50;97.70;;;;;;4905450;29;20060;-77
2022/06/20 11:34:53;;;;;;;1.17;0.60;;;20.70;95.50;;;;;;4890035;29;20573;-76
2022/06/20 11:37:41;;;;;;;1.48;0.85;;;20.70;96.30;;;;;;4888282;29;20075;-76
2022/06/20 11:40:32;;;;;;;2.17;1.00;;;20.90;96.20;;;;;;4900830;29;20107;-76
2022/06/20 11:43:20;;;;;;;1.60;1.00;;;20.80;95.30;;;;;;4881209;29;20056;-77
2022/06/20 11:46:09;;;;;;;1.48;0.88;;;20.70;95.00;;;;;;4907802;29;20076;-76
2022/06/20 11:48:48;;;;;;;2.10;1.10;;;20.40;95.50;;;;;;4906825;29;20159;-76
2022/06/20 11:51:21;;;;;;;1.50;0.90;;;20.70;95.70;;;;;;4890092;29;20048;-76
2022/06/20 11:54:03;;;;;;;2.47;1.08;;;21.20;95.10;;;;;;4906298;29;20107;-78
2022/06/20 11:57:01;;;;;;;1.60;0.95;;;21.80;93.80;;;;;;4871792;29;20056;-69
2022/06/20 11:59:39;;;;;;;1.77;1.00;;;22.00;93.00;;;;;;4890013;29;20106;-71
2022/06/20 12:02:15;;;;;;;1.42;0.73;;;22.30;91.80;;;;;;4872003;29;20091;-71
2022/06/20 12:04:49;;;;;;;0.75;0.68;;;22.90;93.70;;;;;;4880782;29;20366;-78
2022/06/20 12:07:40;;;;;;;0.80;0.80;;;23.10;91.30;;;;;;4882067;29;20056;-73
2022/06/20 12:10:22;;;;;;;0.88;0.73;;;23.70;91.80;;;;;;4894361;29;20139;-72
2022/06/20 12:13:09;;;;;;;1.77;0.90;;;24.00;90.40;;;;;;4884912;29;20475;-70
2022/06/20 12:15:39;;;;;;;1.33;0.90;;;24.40;91.40;;;;;;4892314;29;20126;-71
2022/06/20 12:18:33;;;;;;;1.25;0.70;;;24.70;89.20;;;;;;4908179;29;20051;-71
2022/06/20 12:23:53;;;;;;;1.90;1.02;;;25.20;84.70;;;;;;4878079;29;20150;-71
2022/06/20 12:26:31;;;;;;;1.10;0.80;;;25.30;85.00;;;;;;4854566;29;20080;-74
2022/06/20 12:28:59;;;;;;;2.42;1.10;;;25.20;83.30;;;;;;4877501;29;20134;-68
2022/06/20 12:31:34;;;;;;;1.00;0.70;;;25.30;83.80;;;;;;4874962;29;20520;-68
2022/06/20 12:34:27;;;;;;;1.50;0.80;;;25.60;83.20;;;;;;4868798;29;20075;-69
2022/06/20 12:37:31;;;;;;;1.52;0.90;;;25.80;80.00;;;;;;4882133;29;20138;-68
2022/06/20 12:40:12;;;;;;;1.10;0.65;;;25.80;80.90;;;;;;4911166;29;20472;-68
2022/06/20 12:43:00;;;;;;;1.92;1.00;;;25.90;79.10;;;;;;4877859;29;20135;-68
2022/06/20 12:45:39;;;;;;;1.50;0.95;;;25.80;80.60;;;;;;4891338;29;20098;-68
2022/06/20 12:48:18;;;;;;;1.50;0.90;;;26.00;79.20;;;;;;4908399;29;20103;-68
2022/06/20 12:50:46;;;;;;;1.25;0.80;;;26.40;78.60;;;;;;4911716;29;20254;-68
2022/06/20 12:53:27;;;;;;;1.25;0.70;;;26.40;77.30;;;;;;4892135;29;20135;-68
2022/06/20 12:56:12;;;;;;;0.90;0.70;;;26.70;76.80;;;;;;4907780;29;20185;-68
2022/06/20 12:58:42;;;;;;;1.17;0.98;;;26.80;77.10;;;;;;4906068;29;20092;-69
2022/06/20 13:01:46;;;;;;;1.70;0.90;;;26.90;76.40;;;;;;4893301;29;20131;-69
2022/06/20 13:04:52;;;;;;;1.25;0.90;;;26.90;74.80;;;;;;4864988;29;20345;-69
2022/06/20 13:07:41;;;;;;;1.98;1.00;;;27.00;75.70;;;;;;4859873;29;20055;-69
2022/06/20 13:10:38;;;;;;;1.50;0.85;;;27.30;73.90;;;;;;4890864;29;20098;-69
2022/06/20 13:13:35;;;;;;;1.00;0.55;;;27.80;73.10;;;;;;4909165;29;20083;-68
2022/06/20 13:16:14;;;;;;;0.60;0.52;;;28.30;70.60;;;;;;4909300;29;20082;-69
2022/06/20 13:18:50;;;;;;;1.08;0.70;;;29.00;70.40;;;;;;4884688;29;20080;-69
2022/06/20 13:22:16;;;;;;;1.40;0.95;;;29.10;71.20;;;;;;4898702;29;20090;-69
2022/06/20 13:24:54;;;;;;;0.77;0.60;;;28.60;72.40;;;;;;4846451;29;20157;-69
2022/06/20 13:27:44;;;;;;;0.85;0.70;;;28.80;71.60;;;;;;4829735;29;20134;-69
2022/06/20 13:30:16;;;;;;;0.60;0.60;;;28.90;68.40;;;;;;4889056;29;20090;-69
2022/06/20 13:33:01;;;;;;;1.08;0.70;;;29.20;68.50;;;;;;4882681;29;20107;-70
2022/06/20 13:35:51;;;;;;;1.42;0.80;;;29.30;68.40;;;;;;4891909;29;20467;-70
2022/06/20 13:39:03;;;;;;;1.05;0.70;;;28.90;68.70;;;;;;4890194;29;20091;-70
2022/06/20 13:41:48;;;;;;;1.83;0.93;;;29.00;67.50;;;;;;4884305;29;20147;-70
2022/06/20 13:44:46;;;;;;;2.58;0.90;;;29.20;66.80;;;;;;4892528;29;20076;-70
2022/06/20 13:47:29;;;;;;;2.00;1.00;;;29.00;66.40;;;;;;4909731;29;20158;-70
2022/06/20 13:50:19;;;;;;;1.13;0.82;;;28.80;67.60;;;;;;4893025;29;20072;-70
2022/06/20 13:52:49;;;;;;;1.00;0.90;;;29.00;66.50;;;;;;4894427;29;20143;-70
2022/06/20 13:55:29;;;;;;;0.70;0.68;;;29.70;67.20;;;;;;4874145;29;20091;-70